sensor_id;sensor_type;location;lat;lon;timestamp;P1;durP1;ratioP1;P2;durP2;ratioP2
39074;SDS011;24826;52.070;20.970;2023-03-03T00:01:35;101.90;;;47.17;;
39074;SDS011;24826;52.070;20.970;2023-03-03T00:04:19;96.93;;;44.75;;
39074;SDS011;24826;52.070;20.970;2023-03-03T00:07:04;99.78;;;46.50;;
39074;SDS011;24826;52.070;20.970;2023-03-03T00:09:48;93.93;;;43.88;;
39074;SDS011;24826;52.070;20.970;2023-03-03T00:12:33;94.25;;;41.78;;
39074;SDS011;24826;52.070;20.970;2023-03-03T00:15:23;83.95;;;41.80;;
39074;SDS011;24826;52.070;20.970;2023-03-03T00:21:25;85.22;;;40.15;;
39074;SDS011;24826;52.070;20.970;2023-03-03T00:24:24;84.50;;;41.35;;
39074;SDS011;24826;52.070;20.970;2023-03-03T00:27:30;88.60;;;40.35;;
39074;SDS011;24826;52.070;20.970;2023-03-03T00:30:23;82.93;;;38.05;;
39074;SDS011;24826;52.070;20.970;2023-03-03T00:39:25;77.78;;;37.05;;
39074;SDS011;24826;52.070;20.970;2023-03-03T00:42:14;79.70;;;38.25;;
39074;SDS011;24826;52.070;20.970;2023-03-03T00:45:00;73.82;;;36.80;;
39074;SDS011;24826;52.070;20.970;2023-03-03T00:47:45;78.18;;;37.13;;
39074;SDS011;24826;52.070;20.970;2023-03-03T00:50:33;75.60;;;36.45;;
39074;SDS011;24826;52.070;20.970;2023-03-03T00:53:18;67.45;;;33.25;;
39074;SDS011;24826;52.070;20.970;2023-03-03T00:56:04;72.25;;;35.90;;
39074;SDS011;24826;52.070;20.970;2023-03-03T00:58:49;80.55;;;35.83;;
39074;SDS011;24826;52.070;20.970;2023-03-03T01:01:33;74.18;;;35.47;;
39074;SDS011;24826;52.070;20.970;2023-03-03T01:04:18;73.40;;;34.78;;
39074;SDS011;24826;52.070;20.970;2023-03-03T01:07:02;72.45;;;34.22;;
39074;SDS011;24826;52.070;20.970;2023-03-03T01:09:47;70.07;;;33.53;;
39074;SDS011;24826;52.070;20.970;2023-03-03T01:12:31;67.45;;;33.00;;
39074;SDS011;24826;52.070;20.970;2023-03-03T01:15:16;71.68;;;33.00;;
39074;SDS011;24826;52.070;20.970;2023-03-03T01:18:00;71.75;;;34.13;;
39074;SDS011;24826;52.070;20.970;2023-03-03T01:20:45;76.97;;;34.92;;
39074;SDS011;24826;52.070;20.970;2023-03-03T01:23:29;64.20;;;33.03;;
39074;SDS011;24826;52.070;20.970;2023-03-03T01:26:14;70.93;;;34.65;;
39074;SDS011;24826;52.070;20.970;2023-03-03T01:28:58;67.80;;;33.03;;
39074;SDS011;24826;52.070;20.970;2023-03-03T01:31:42;66.80;;;34.80;;
39074;SDS011;24826;52.070;20.970;2023-03-03T01:34:27;69.57;;;33.50;;
39074;SDS011;24826;52.070;20.970;2023-03-03T01:37:11;71.30;;;33.33;;
39074;SDS011;24826;52.070;20.970;2023-03-03T01:39:56;68.57;;;35.15;;
39074;SDS011;24826;52.070;20.970;2023-03-03T01:42:41;66.25;;;32.78;;
39074;SDS011;24826;52.070;20.970;2023-03-03T01:45:41;70.53;;;33.63;;
39074;SDS011;24826;52.070;20.970;2023-03-03T01:48:48;67.07;;;32.42;;
39074;SDS011;24826;52.070;20.970;2023-03-03T01:51:35;70.85;;;33.65;;
39074;SDS011;24826;52.070;20.970;2023-03-03T01:54:27;68.38;;;34.15;;
39074;SDS011;24826;52.070;20.970;2023-03-03T01:57:19;67.57;;;34.08;;
39074;SDS011;24826;52.070;20.970;2023-03-03T02:00:10;70.80;;;34.85;;
39074;SDS011;24826;52.070;20.970;2023-03-03T02:02:55;73.85;;;35.17;;
39074;SDS011;24826;52.070;20.970;2023-03-03T02:05:40;70.38;;;34.53;;
39074;SDS011;24826;52.070;20.970;2023-03-03T02:08:26;69.78;;;34.40;;
39074;SDS011;24826;52.070;20.970;2023-03-03T02:11:18;72.90;;;35.25;;
39074;SDS011;24826;52.070;20.970;2023-03-03T02:14:05;72.18;;;35.05;;
39074;SDS011;24826;52.070;20.970;2023-03-03T02:16:49;69.88;;;32.95;;
39074;SDS011;24826;52.070;20.970;2023-03-03T02:22:31;73.78;;;36.22;;
39074;SDS011;24826;52.070;20.970;2023-03-03T02:25:28;67.47;;;34.00;;
39074;SDS011;24826;52.070;20.970;2023-03-03T02:28:17;68.88;;;35.60;;
39074;SDS011;24826;52.070;20.970;2023-03-03T02:31:02;73.30;;;35.90;;
39074;SDS011;24826;52.070;20.970;2023-03-03T02:33:49;72.18;;;34.25;;
39074;SDS011;24826;52.070;20.970;2023-03-03T02:36:36;68.00;;;34.13;;
39074;SDS011;24826;52.070;20.970;2023-03-03T02:39:23;66.85;;;32.90;;
39074;SDS011;24826;52.070;20.970;2023-03-03T02:42:12;67.47;;;33.97;;
39074;SDS011;24826;52.070;20.970;2023-03-03T02:45:01;71.72;;;35.25;;
39074;SDS011;24826;52.070;20.970;2023-03-03T02:47:48;75.18;;;35.10;;
39074;SDS011;24826;52.070;20.970;2023-03-03T02:50:34;71.55;;;35.00;;
39074;SDS011;24826;52.070;20.970;2023-03-03T02:53:18;70.63;;;35.35;;
39074;SDS011;24826;52.070;20.970;2023-03-03T02:56:02;73.57;;;34.20;;
39074;SDS011;24826;52.070;20.970;2023-03-03T02:58:47;70.40;;;34.60;;
39074;SDS011;24826;52.070;20.970;2023-03-03T03:01:32;78.30;;;36.55;;
39074;SDS011;24826;52.070;20.970;2023-03-03T03:04:21;72.40;;;33.90;;
39074;SDS011;24826;52.070;20.970;2023-03-03T03:07:07;66.93;;;33.75;;
39074;SDS011;24826;52.070;20.970;2023-03-03T03:09:51;76.53;;;35.95;;
39074;SDS011;24826;52.070;20.970;2023-03-03T03:12:35;73.75;;;36.25;;
39074;SDS011;24826;52.070;20.970;2023-03-03T03:15:19;70.15;;;35.65;;
39074;SDS011;24826;52.070;20.970;2023-03-03T03:18:04;70.72;;;35.15;;
39074;SDS011;24826;52.070;20.970;2023-03-03T03:20:48;64.03;;;33.28;;
39074;SDS011;24826;52.070;20.970;2023-03-03T03:23:33;76.82;;;34.67;;
39074;SDS011;24826;52.070;20.970;2023-03-03T03:26:18;66.97;;;31.88;;
39074;SDS011;24826;52.070;20.970;2023-03-03T03:29:04;68.15;;;33.10;;
39074;SDS011;24826;52.070;20.970;2023-03-03T03:31:48;68.22;;;33.33;;
39074;SDS011;24826;52.070;20.970;2023-03-03T03:34:33;60.30;;;31.75;;
39074;SDS011;24826;52.070;20.970;2023-03-03T03:37:17;65.43;;;32.92;;
39074;SDS011;24826;52.070;20.970;2023-03-03T03:40:02;64.03;;;31.13;;
39074;SDS011;24826;52.070;20.970;2023-03-03T03:42:47;60.42;;;31.65;;
39074;SDS011;24826;52.070;20.970;2023-03-03T03:45:32;64.38;;;30.48;;
39074;SDS011;24826;52.070;20.970;2023-03-03T03:48:16;63.83;;;30.00;;
39074;SDS011;24826;52.070;20.970;2023-03-03T03:51:03;66.15;;;32.15;;
39074;SDS011;24826;52.070;20.970;2023-03-03T03:53:47;60.22;;;30.95;;
39074;SDS011;24826;52.070;20.970;2023-03-03T03:56:32;58.55;;;30.63;;
39074;SDS011;24826;52.070;20.970;2023-03-03T03:59:16;69.28;;;32.20;;
39074;SDS011;24826;52.070;20.970;2023-03-03T04:02:01;65.20;;;31.10;;
39074;SDS011;24826;52.070;20.970;2023-03-03T04:04:46;70.55;;;33.10;;
39074;SDS011;24826;52.070;20.970;2023-03-03T04:07:30;67.18;;;34.40;;
39074;SDS011;24826;52.070;20.970;2023-03-03T04:10:14;64.88;;;33.25;;
39074;SDS011;24826;52.070;20.970;2023-03-03T04:13:00;63.92;;;31.92;;
39074;SDS011;24826;52.070;20.970;2023-03-03T04:15:45;65.80;;;32.65;;
39074;SDS011;24826;52.070;20.970;2023-03-03T04:18:29;61.22;;;29.67;;
39074;SDS011;24826;52.070;20.970;2023-03-03T04:21:14;65.20;;;30.05;;
39074;SDS011;24826;52.070;20.970;2023-03-03T04:23:59;60.05;;;29.95;;
39074;SDS011;24826;52.070;20.970;2023-03-03T04:26:43;61.08;;;29.92;;
39074;SDS011;24826;52.070;20.970;2023-03-03T04:29:27;60.28;;;30.60;;
39074;SDS011;24826;52.070;20.970;2023-03-03T04:32:12;64.72;;;30.15;;
39074;SDS011;24826;52.070;20.970;2023-03-03T04:34:56;62.00;;;30.35;;
39074;SDS011;24826;52.070;20.970;2023-03-03T04:37:40;62.78;;;30.50;;
39074;SDS011;24826;52.070;20.970;2023-03-03T04:40:25;60.17;;;30.40;;
39074;SDS011;24826;52.070;20.970;2023-03-03T04:43:09;63.67;;;31.23;;
39074;SDS011;24826;52.070;20.970;2023-03-03T04:45:55;62.05;;;31.65;;
39074;SDS011;24826;52.070;20.970;2023-03-03T04:48:39;73.75;;;32.83;;
39074;SDS011;24826;52.070;20.970;2023-03-03T04:51:24;64.70;;;32.58;;
39074;SDS011;24826;52.070;20.970;2023-03-03T04:54:08;60.85;;;30.98;;
39074;SDS011;24826;52.070;20.970;2023-03-03T04:56:53;67.95;;;33.08;;
39074;SDS011;24826;52.070;20.970;2023-03-03T04:59:37;64.00;;;32.50;;
39074;SDS011;24826;52.070;20.970;2023-03-03T05:02:21;67.22;;;34.25;;
39074;SDS011;24826;52.070;20.970;2023-03-03T05:05:06;64.97;;;32.80;;
39074;SDS011;24826;52.070;20.970;2023-03-03T05:07:52;72.43;;;33.75;;
39074;SDS011;24826;52.070;20.970;2023-03-03T05:10:37;63.10;;;32.03;;
39074;SDS011;24826;52.070;20.970;2023-03-03T05:13:21;62.50;;;32.25;;
39074;SDS011;24826;52.070;20.970;2023-03-03T05:16:05;62.83;;;31.38;;
39074;SDS011;24826;52.070;20.970;2023-03-03T05:18:50;61.20;;;31.83;;
39074;SDS011;24826;52.070;20.970;2023-03-03T05:21:34;64.43;;;32.30;;
39074;SDS011;24826;52.070;20.970;2023-03-03T05:24:19;67.05;;;32.13;;
39074;SDS011;24826;52.070;20.970;2023-03-03T05:27:03;65.32;;;32.92;;
39074;SDS011;24826;52.070;20.970;2023-03-03T05:29:48;66.57;;;32.67;;
39074;SDS011;24826;52.070;20.970;2023-03-03T05:32:33;67.10;;;32.58;;
39074;SDS011;24826;52.070;20.970;2023-03-03T05:35:18;63.75;;;32.72;;
39074;SDS011;24826;52.070;20.970;2023-03-03T05:38:03;66.30;;;32.88;;
39074;SDS011;24826;52.070;20.970;2023-03-03T05:40:48;64.45;;;33.28;;
39074;SDS011;24826;52.070;20.970;2023-03-03T05:43:33;70.53;;;32.03;;
39074;SDS011;24826;52.070;20.970;2023-03-03T05:46:17;67.85;;;32.28;;
39074;SDS011;24826;52.070;20.970;2023-03-03T05:49:01;69.72;;;33.75;;
39074;SDS011;24826;52.070;20.970;2023-03-03T05:51:46;71.22;;;33.85;;
39074;SDS011;24826;52.070;20.970;2023-03-03T05:54:30;76.22;;;35.70;;
39074;SDS011;24826;52.070;20.970;2023-03-03T05:57:15;70.22;;;33.33;;
39074;SDS011;24826;52.070;20.970;2023-03-03T05:59:59;69.18;;;34.30;;
39074;SDS011;24826;52.070;20.970;2023-03-03T06:02:44;67.95;;;33.00;;
39074;SDS011;24826;52.070;20.970;2023-03-03T06:05:28;69.28;;;35.22;;
39074;SDS011;24826;52.070;20.970;2023-03-03T06:08:13;75.03;;;36.25;;
39074;SDS011;24826;52.070;20.970;2023-03-03T06:10:57;76.55;;;37.20;;
39074;SDS011;24826;52.070;20.970;2023-03-03T06:13:42;72.45;;;36.55;;
39074;SDS011;24826;52.070;20.970;2023-03-03T06:16:26;75.55;;;37.25;;
39074;SDS011;24826;52.070;20.970;2023-03-03T06:19:10;79.88;;;38.80;;
39074;SDS011;24826;52.070;20.970;2023-03-03T06:21:54;83.32;;;37.45;;
39074;SDS011;24826;52.070;20.970;2023-03-03T06:24:39;79.93;;;39.08;;
39074;SDS011;24826;52.070;20.970;2023-03-03T06:27:23;79.53;;;37.83;;
39074;SDS011;24826;52.070;20.970;2023-03-03T06:30:08;76.70;;;37.45;;
39074;SDS011;24826;52.070;20.970;2023-03-03T06:32:53;87.75;;;38.10;;
39074;SDS011;24826;52.070;20.970;2023-03-03T06:35:37;75.47;;;36.50;;
39074;SDS011;24826;52.070;20.970;2023-03-03T06:38:22;79.72;;;38.05;;
39074;SDS011;24826;52.070;20.970;2023-03-03T06:41:06;81.90;;;39.55;;
39074;SDS011;24826;52.070;20.970;2023-03-03T06:43:51;81.15;;;37.53;;
39074;SDS011;24826;52.070;20.970;2023-03-03T06:46:36;77.03;;;37.65;;
39074;SDS011;24826;52.070;20.970;2023-03-03T06:49:20;86.88;;;39.70;;
39074;SDS011;24826;52.070;20.970;2023-03-03T06:52:12;85.47;;;39.17;;
39074;SDS011;24826;52.070;20.970;2023-03-03T06:55:09;84.40;;;37.85;;
39074;SDS011;24826;52.070;20.970;2023-03-03T06:58:04;84.00;;;36.40;;
39074;SDS011;24826;52.070;20.970;2023-03-03T07:00:54;84.45;;;36.92;;
39074;SDS011;24826;52.070;20.970;2023-03-03T07:03:39;71.53;;;35.85;;
39074;SDS011;24826;52.070;20.970;2023-03-03T07:06:24;79.35;;;37.03;;
39074;SDS011;24826;52.070;20.970;2023-03-03T07:09:17;70.75;;;33.53;;
39074;SDS011;24826;52.070;20.970;2023-03-03T07:12:21;77.10;;;35.53;;
39074;SDS011;24826;52.070;20.970;2023-03-03T07:18:00;71.55;;;33.58;;
39074;SDS011;24826;52.070;20.970;2023-03-03T07:20:45;70.80;;;33.75;;
39074;SDS011;24826;52.070;20.970;2023-03-03T07:23:32;72.22;;;33.72;;
39074;SDS011;24826;52.070;20.970;2023-03-03T07:26:29;69.78;;;32.80;;
39074;SDS011;24826;52.070;20.970;2023-03-03T07:29:18;72.70;;;30.50;;
39074;SDS011;24826;52.070;20.970;2023-03-03T07:32:16;73.65;;;30.67;;
39074;SDS011;24826;52.070;20.970;2023-03-03T07:35:28;71.40;;;32.92;;
39074;SDS011;24826;52.070;20.970;2023-03-03T07:41:09;66.93;;;30.83;;
39074;SDS011;24826;52.070;20.970;2023-03-03T07:44:05;71.32;;;30.77;;
39074;SDS011;24826;52.070;20.970;2023-03-03T07:46:55;70.88;;;30.73;;
39074;SDS011;24826;52.070;20.970;2023-03-03T07:49:39;67.13;;;29.08;;
39074;SDS011;24826;52.070;20.970;2023-03-03T07:52:39;65.50;;;29.98;;
39074;SDS011;24826;52.070;20.970;2023-03-03T07:55:30;67.85;;;29.73;;
39074;SDS011;24826;52.070;20.970;2023-03-03T08:04:14;67.18;;;30.52;;
39074;SDS011;24826;52.070;20.970;2023-03-03T08:07:15;66.65;;;29.48;;
39074;SDS011;24826;52.070;20.970;2023-03-03T08:10:01;72.72;;;29.90;;
39074;SDS011;24826;52.070;20.970;2023-03-03T08:13:15;68.45;;;30.05;;
39074;SDS011;24826;52.070;20.970;2023-03-03T08:16:01;70.07;;;30.73;;
39074;SDS011;24826;52.070;20.970;2023-03-03T08:18:48;62.17;;;28.77;;
39074;SDS011;24826;52.070;20.970;2023-03-03T08:21:33;77.07;;;32.03;;
39074;SDS011;24826;52.070;20.970;2023-03-03T08:24:18;72.53;;;32.83;;
39074;SDS011;24826;52.070;20.970;2023-03-03T08:27:02;81.28;;;37.50;;
39074;SDS011;24826;52.070;20.970;2023-03-03T08:29:47;72.70;;;31.50;;
39074;SDS011;24826;52.070;20.970;2023-03-03T08:32:33;65.35;;;28.98;;
39074;SDS011;24826;52.070;20.970;2023-03-03T08:35:17;68.43;;;28.63;;
39074;SDS011;24826;52.070;20.970;2023-03-03T08:38:02;69.15;;;29.00;;
39074;SDS011;24826;52.070;20.970;2023-03-03T08:40:47;57.45;;;26.63;;
39074;SDS011;24826;52.070;20.970;2023-03-03T08:43:32;65.47;;;31.20;;
39074;SDS011;24826;52.070;20.970;2023-03-03T08:46:17;70.28;;;32.58;;
39074;SDS011;24826;52.070;20.970;2023-03-03T08:49:00;65.80;;;28.48;;
39074;SDS011;24826;52.070;20.970;2023-03-03T08:51:45;60.00;;;27.67;;
39074;SDS011;24826;52.070;20.970;2023-03-03T08:54:31;60.38;;;27.05;;
39074;SDS011;24826;52.070;20.970;2023-03-03T08:57:16;63.47;;;27.67;;
39074;SDS011;24826;52.070;20.970;2023-03-03T09:00:00;64.32;;;28.20;;
39074;SDS011;24826;52.070;20.970;2023-03-03T09:02:45;61.78;;;26.20;;
39074;SDS011;24826;52.070;20.970;2023-03-03T09:05:30;64.78;;;27.02;;
39074;SDS011;24826;52.070;20.970;2023-03-03T09:08:14;56.28;;;27.10;;
39074;SDS011;24826;52.070;20.970;2023-03-03T09:10:59;56.15;;;27.88;;
39074;SDS011;24826;52.070;20.970;2023-03-03T09:13:43;61.78;;;28.95;;
39074;SDS011;24826;52.070;20.970;2023-03-03T09:16:29;58.40;;;28.95;;
39074;SDS011;24826;52.070;20.970;2023-03-03T09:22:22;71.05;;;32.40;;
39074;SDS011;24826;52.070;20.970;2023-03-03T09:25:22;61.05;;;29.55;;
39074;SDS011;24826;52.070;20.970;2023-03-03T09:28:24;62.53;;;29.88;;
39074;SDS011;24826;52.070;20.970;2023-03-03T09:31:21;63.95;;;30.42;;
39074;SDS011;24826;52.070;20.970;2023-03-03T09:34:18;65.75;;;29.70;;
39074;SDS011;24826;52.070;20.970;2023-03-03T09:40:08;66.57;;;29.75;;
39074;SDS011;24826;52.070;20.970;2023-03-03T09:53:24;58.55;;;26.77;;
39074;SDS011;24826;52.070;20.970;2023-03-03T10:02:40;54.08;;;24.63;;
39074;SDS011;24826;52.070;20.970;2023-03-03T10:05:38;43.75;;;21.98;;
39074;SDS011;24826;52.070;20.970;2023-03-03T10:08:41;49.58;;;22.60;;
39074;SDS011;24826;52.070;20.970;2023-03-03T10:11:40;47.92;;;22.27;;
39074;SDS011;24826;52.070;20.970;2023-03-03T10:14:49;52.35;;;23.98;;
39074;SDS011;24826;52.070;20.970;2023-03-03T10:17:53;50.08;;;24.90;;
39074;SDS011;24826;52.070;20.970;2023-03-03T10:20:59;49.38;;;24.27;;
39074;SDS011;24826;52.070;20.970;2023-03-03T10:24:03;49.63;;;23.65;;
39074;SDS011;24826;52.070;20.970;2023-03-03T10:30:19;52.15;;;24.23;;
39074;SDS011;24826;52.070;20.970;2023-03-03T10:39:02;48.10;;;23.35;;
39074;SDS011;24826;52.070;20.970;2023-03-03T10:45:18;45.42;;;21.27;;
39074;SDS011;24826;52.070;20.970;2023-03-03T10:54:06;51.47;;;24.05;;
39074;SDS011;24826;52.070;20.970;2023-03-03T10:57:14;47.40;;;22.10;;
39074;SDS011;24826;52.070;20.970;2023-03-03T11:03:12;44.60;;;21.95;;
39074;SDS011;24826;52.070;20.970;2023-03-03T11:06:17;44.50;;;21.77;;
39074;SDS011;24826;52.070;20.970;2023-03-03T11:18:51;51.47;;;23.02;;
39074;SDS011;24826;52.070;20.970;2023-03-03T11:40:11;52.22;;;23.73;;
39074;SDS011;24826;52.070;20.970;2023-03-03T11:43:02;54.67;;;24.23;;
39074;SDS011;24826;52.070;20.970;2023-03-03T11:45:58;53.35;;;24.75;;
39074;SDS011;24826;52.070;20.970;2023-03-03T11:48:53;51.95;;;25.80;;
39074;SDS011;24826;52.070;20.970;2023-03-03T11:51:47;46.10;;;23.38;;
39074;SDS011;24826;52.070;20.970;2023-03-03T11:54:45;49.15;;;21.42;;
39074;SDS011;24826;52.070;20.970;2023-03-03T11:57:38;42.63;;;20.55;;
39074;SDS011;24826;52.070;20.970;2023-03-03T12:00:51;45.92;;;21.27;;
39074;SDS011;24826;52.070;20.970;2023-03-03T12:03:47;40.38;;;20.30;;
39074;SDS011;24826;52.070;20.970;2023-03-03T12:09:54;42.22;;;20.80;;
39074;SDS011;24826;52.070;20.970;2023-03-03T12:12:48;40.03;;;19.83;;
39074;SDS011;24826;52.070;20.970;2023-03-03T12:21:53;39.60;;;20.38;;
39074;SDS011;24826;52.070;20.970;2023-03-03T12:24:54;39.30;;;19.73;;
39074;SDS011;24826;52.070;20.970;2023-03-03T12:27:44;38.72;;;19.25;;
39074;SDS011;24826;52.070;20.970;2023-03-03T12:45:59;38.67;;;18.00;;
39074;SDS011;24826;52.070;20.970;2023-03-03T12:48:45;37.65;;;16.77;;
39074;SDS011;24826;52.070;20.970;2023-03-03T12:57:42;31.58;;;17.30;;
39074;SDS011;24826;52.070;20.970;2023-03-03T13:00:39;36.95;;;17.20;;
39074;SDS011;24826;52.070;20.970;2023-03-03T13:03:48;37.10;;;18.52;;
39074;SDS011;24826;52.070;20.970;2023-03-03T13:09:34;40.67;;;18.77;;
39074;SDS011;24826;52.070;20.970;2023-03-03T13:15:47;36.80;;;19.55;;
39074;SDS011;24826;52.070;20.970;2023-03-03T13:27:53;31.23;;;16.05;;
39074;SDS011;24826;52.070;20.970;2023-03-03T13:30:46;38.15;;;17.60;;
39074;SDS011;24826;52.070;20.970;2023-03-03T13:33:36;33.58;;;16.45;;
39074;SDS011;24826;52.070;20.970;2023-03-03T13:36:34;30.67;;;15.38;;
39074;SDS011;24826;52.070;20.970;2023-03-03T13:39:28;28.35;;;15.13;;
39074;SDS011;24826;52.070;20.970;2023-03-03T13:45:24;35.78;;;14.82;;
39074;SDS011;24826;52.070;20.970;2023-03-03T13:48:41;34.42;;;15.88;;
39074;SDS011;24826;52.070;20.970;2023-03-03T14:01:05;32.92;;;15.02;;
39074;SDS011;24826;52.070;20.970;2023-03-03T14:04:04;29.70;;;14.70;;
39074;SDS011;24826;52.070;20.970;2023-03-03T14:06:59;31.23;;;15.35;;
39074;SDS011;24826;52.070;20.970;2023-03-03T14:10:05;28.13;;;14.82;;
39074;SDS011;24826;52.070;20.970;2023-03-03T14:13:01;33.15;;;17.23;;
39074;SDS011;24826;52.070;20.970;2023-03-03T14:16:08;49.00;;;18.15;;
39074;SDS011;24826;52.070;20.970;2023-03-03T14:19:06;52.05;;;19.52;;
39074;SDS011;24826;52.070;20.970;2023-03-03T14:22:11;38.40;;;15.48;;
39074;SDS011;24826;52.070;20.970;2023-03-03T14:25:16;50.63;;;16.98;;
39074;SDS011;24826;52.070;20.970;2023-03-03T14:28:08;37.50;;;16.67;;
39074;SDS011;24826;52.070;20.970;2023-03-03T14:30:57;36.10;;;16.13;;
39074;SDS011;24826;52.070;20.970;2023-03-03T14:33:43;38.65;;;16.02;;
39074;SDS011;24826;52.070;20.970;2023-03-03T14:36:40;32.95;;;15.75;;
39074;SDS011;24826;52.070;20.970;2023-03-03T14:42:37;31.08;;;15.38;;
39074;SDS011;24826;52.070;20.970;2023-03-03T14:48:21;26.95;;;14.52;;
39074;SDS011;24826;52.070;20.970;2023-03-03T14:51:23;30.52;;;15.43;;
39074;SDS011;24826;52.070;20.970;2023-03-03T14:54:15;31.83;;;14.95;;
39074;SDS011;24826;52.070;20.970;2023-03-03T14:57:08;32.63;;;15.25;;
39074;SDS011;24826;52.070;20.970;2023-03-03T15:00:25;28.42;;;15.65;;
39074;SDS011;24826;52.070;20.970;2023-03-03T15:03:21;28.20;;;14.40;;
39074;SDS011;24826;52.070;20.970;2023-03-03T15:06:10;27.92;;;14.40;;
39074;SDS011;24826;52.070;20.970;2023-03-03T15:08:56;24.77;;;13.95;;
39074;SDS011;24826;52.070;20.970;2023-03-03T15:11:40;29.63;;;14.57;;
39074;SDS011;24826;52.070;20.970;2023-03-03T15:14:31;29.17;;;14.68;;
39074;SDS011;24826;52.070;20.970;2023-03-03T15:17:25;29.15;;;15.00;;
39074;SDS011;24826;52.070;20.970;2023-03-03T15:32:28;33.55;;;16.88;;
39074;SDS011;24826;52.070;20.970;2023-03-03T15:41:26;30.08;;;15.85;;
39074;SDS011;24826;52.070;20.970;2023-03-03T15:44:45;25.23;;;13.40;;
39074;SDS011;24826;52.070;20.970;2023-03-03T16:03:41;25.58;;;13.48;;
39074;SDS011;24826;52.070;20.970;2023-03-03T16:22:10;29.95;;;15.15;;
39074;SDS011;24826;52.070;20.970;2023-03-03T16:28:05;32.03;;;15.98;;
39074;SDS011;24826;52.070;20.970;2023-03-03T16:31:22;31.45;;;15.55;;
39074;SDS011;24826;52.070;20.970;2023-03-03T16:37:07;30.05;;;16.10;;
39074;SDS011;24826;52.070;20.970;2023-03-03T16:39:55;30.58;;;15.75;;
39074;SDS011;24826;52.070;20.970;2023-03-03T16:42:46;30.30;;;16.83;;
39074;SDS011;24826;52.070;20.970;2023-03-03T16:45:40;31.65;;;16.35;;
39074;SDS011;24826;52.070;20.970;2023-03-03T16:48:26;31.27;;;16.08;;
39074;SDS011;24826;52.070;20.970;2023-03-03T16:54:29;28.30;;;15.05;;
39074;SDS011;24826;52.070;20.970;2023-03-03T17:00:28;32.70;;;17.27;;
39074;SDS011;24826;52.070;20.970;2023-03-03T17:48:03;37.92;;;18.98;;
39074;SDS011;24826;52.070;20.970;2023-03-03T17:53:47;43.65;;;22.67;;
39074;SDS011;24826;52.070;20.970;2023-03-03T18:06:18;49.78;;;29.92;;
39074;SDS011;24826;52.070;20.970;2023-03-03T18:09:40;43.30;;;24.48;;
39074;SDS011;24826;52.070;20.970;2023-03-03T18:12:58;37.75;;;20.75;;
39074;SDS011;24826;52.070;20.970;2023-03-03T18:19:19;37.33;;;19.55;;
39074;SDS011;24826;52.070;20.970;2023-03-03T18:22:33;37.80;;;20.80;;
39074;SDS011;24826;52.070;20.970;2023-03-03T18:25:50;35.70;;;19.75;;
39074;SDS011;24826;52.070;20.970;2023-03-03T18:28:47;37.08;;;19.30;;
39074;SDS011;24826;52.070;20.970;2023-03-03T18:31:43;39.42;;;20.65;;
39074;SDS011;24826;52.070;20.970;2023-03-03T18:34:34;36.83;;;20.83;;
39074;SDS011;24826;52.070;20.970;2023-03-03T18:40:18;42.30;;;22.48;;
39074;SDS011;24826;52.070;20.970;2023-03-03T18:52:35;43.47;;;24.83;;
39074;SDS011;24826;52.070;20.970;2023-03-03T18:55:20;43.90;;;23.92;;
39074;SDS011;24826;52.070;20.970;2023-03-03T19:00:58;46.80;;;24.80;;
39074;SDS011;24826;52.070;20.970;2023-03-03T19:06:31;43.25;;;23.73;;
39074;SDS011;24826;52.070;20.970;2023-03-03T19:09:46;48.88;;;25.13;;
39074;SDS011;24826;52.070;20.970;2023-03-03T19:12:57;46.22;;;26.52;;
39074;SDS011;24826;52.070;20.970;2023-03-03T19:15:45;47.05;;;24.95;;
39074;SDS011;24826;52.070;20.970;2023-03-03T19:27:08;44.35;;;23.05;;
39074;SDS011;24826;52.070;20.970;2023-03-03T19:42:40;46.97;;;24.73;;
39074;SDS011;24826;52.070;20.970;2023-03-03T19:48:47;56.03;;;25.52;;
39074;SDS011;24826;52.070;20.970;2023-03-03T19:52:09;51.72;;;25.60;;
39074;SDS011;24826;52.070;20.970;2023-03-03T19:55:22;52.60;;;27.00;;
39074;SDS011;24826;52.070;20.970;2023-03-03T20:05:07;46.80;;;22.77;;
39074;SDS011;24826;52.070;20.970;2023-03-03T20:08:11;50.50;;;24.05;;
39074;SDS011;24826;52.070;20.970;2023-03-03T20:11:27;49.55;;;24.67;;
39074;SDS011;24826;52.070;20.970;2023-03-03T20:14:32;49.17;;;23.65;;
39074;SDS011;24826;52.070;20.970;2023-03-03T20:27:04;48.72;;;23.73;;
39074;SDS011;24826;52.070;20.970;2023-03-03T20:30:06;49.85;;;23.58;;
39074;SDS011;24826;52.070;20.970;2023-03-03T20:36:04;49.38;;;24.48;;
39074;SDS011;24826;52.070;20.970;2023-03-03T20:39:09;47.65;;;23.73;;
39074;SDS011;24826;52.070;20.970;2023-03-03T20:42:10;44.67;;;23.20;;
39074;SDS011;24826;52.070;20.970;2023-03-03T20:45:01;45.63;;;21.48;;
39074;SDS011;24826;52.070;20.970;2023-03-03T20:59:52;38.58;;;20.27;;
39074;SDS011;24826;52.070;20.970;2023-03-03T21:02:50;45.80;;;21.55;;
39074;SDS011;24826;52.070;20.970;2023-03-03T21:06:16;40.60;;;20.15;;
39074;SDS011;24826;52.070;20.970;2023-03-03T21:08:58;39.40;;;19.90;;
39074;SDS011;24826;52.070;20.970;2023-03-03T21:11:42;39.40;;;19.92;;
39074;SDS011;24826;52.070;20.970;2023-03-03T21:14:28;42.60;;;22.00;;
39074;SDS011;24826;52.070;20.970;2023-03-03T21:17:23;43.53;;;20.42;;
39074;SDS011;24826;52.070;20.970;2023-03-03T21:20:22;41.65;;;20.48;;
39074;SDS011;24826;52.070;20.970;2023-03-03T21:23:17;43.80;;;20.08;;
39074;SDS011;24826;52.070;20.970;2023-03-03T21:26:04;40.53;;;20.13;;
39074;SDS011;24826;52.070;20.970;2023-03-03T21:28:59;37.15;;;19.23;;
39074;SDS011;24826;52.070;20.970;2023-03-03T21:31:45;46.35;;;21.88;;
39074;SDS011;24826;52.070;20.970;2023-03-03T21:34:31;45.20;;;22.00;;
39074;SDS011;24826;52.070;20.970;2023-03-03T21:37:40;44.70;;;21.77;;
39074;SDS011;24826;52.070;20.970;2023-03-03T21:40:33;44.10;;;20.73;;
39074;SDS011;24826;52.070;20.970;2023-03-03T21:43:34;39.85;;;20.77;;
39074;SDS011;24826;52.070;20.970;2023-03-03T21:46:20;39.10;;;21.00;;
39074;SDS011;24826;52.070;20.970;2023-03-03T21:49:06;42.95;;;22.08;;
39074;SDS011;24826;52.070;20.970;2023-03-03T21:51:51;41.95;;;21.40;;
39074;SDS011;24826;52.070;20.970;2023-03-03T21:54:35;43.40;;;22.50;;
39074;SDS011;24826;52.070;20.970;2023-03-03T21:57:20;40.45;;;20.92;;
39074;SDS011;24826;52.070;20.970;2023-03-03T22:00:05;43.03;;;21.60;;
39074;SDS011;24826;52.070;20.970;2023-03-03T22:02:51;47.85;;;22.63;;
39074;SDS011;24826;52.070;20.970;2023-03-03T22:05:38;44.22;;;21.40;;
39074;SDS011;24826;52.070;20.970;2023-03-03T22:08:23;44.00;;;20.95;;
39074;SDS011;24826;52.070;20.970;2023-03-03T22:11:07;42.40;;;21.80;;
39074;SDS011;24826;52.070;20.970;2023-03-03T22:13:51;41.40;;;20.42;;
39074;SDS011;24826;52.070;20.970;2023-03-03T22:16:36;41.25;;;20.98;;
39074;SDS011;24826;52.070;20.970;2023-03-03T22:19:20;41.30;;;21.70;;
39074;SDS011;24826;52.070;20.970;2023-03-03T22:22:04;41.38;;;20.83;;